sensor_id;sensor_type;location;lat;lon;timestamp;P1;durP1;ratioP1;P2;durP2;ratioP2
46006;SDS011;31738;50.188;8.524;2022-07-22T00:02:09;10.55;;;6.40;;
46006;SDS011;31738;50.188;8.524;2022-07-22T00:04:34;9.57;;;7.15;;
46006;SDS011;31738;50.188;8.524;2022-07-22T00:07:00;11.80;;;6.95;;
46006;SDS011;31738;50.188;8.524;2022-07-22T00:09:25;10.10;;;6.85;;
46006;SDS011;31738;50.188;8.524;2022-07-22T00:11:51;10.82;;;6.80;;
46006;SDS011;31738;50.188;8.524;2022-07-22T00:14:17;10.02;;;6.57;;
46006;SDS011;31738;50.188;8.524;2022-07-22T00:16:42;8.88;;;6.72;;
46006;SDS011;31738;50.188;8.524;2022-07-22T00:19:08;10.43;;;6.80;;
46006;SDS011;31738;50.188;8.524;2022-07-22T00:21:34;9.52;;;6.75;;
46006;SDS011;31738;50.188;8.524;2022-07-22T00:23:59;8.85;;;6.78;;
46006;SDS011;31738;50.188;8.524;2022-07-22T00:26:24;10.20;;;7.22;;
46006;SDS011;31738;50.188;8.524;2022-07-22T00:28:50;10.55;;;7.03;;
46006;SDS011;31738;50.188;8.524;2022-07-22T00:31:15;10.32;;;7.28;;
46006;SDS011;31738;50.188;8.524;2022-07-22T00:33:41;10.73;;;6.90;;
46006;SDS011;31738;50.188;8.524;2022-07-22T00:36:07;11.43;;;7.18;;
46006;SDS011;31738;50.188;8.524;2022-07-22T00:38:33;14.95;;;7.40;;
46006;SDS011;31738;50.188;8.524;2022-07-22T00:41:00;8.45;;;6.53;;
46006;SDS011;31738;50.188;8.524;2022-07-22T00:43:25;8.10;;;6.47;;
46006;SDS011;31738;50.188;8.524;2022-07-22T00:45:51;10.18;;;5.82;;
46006;SDS011;31738;50.188;8.524;2022-07-22T00:48:16;9.32;;;5.50;;
46006;SDS011;31738;50.188;8.524;2022-07-22T00:50:42;10.13;;;6.35;;
46006;SDS011;31738;50.188;8.524;2022-07-22T00:53:08;8.52;;;5.28;;
46006;SDS011;31738;50.188;8.524;2022-07-22T00:55:34;11.63;;;6.00;;
46006;SDS011;31738;50.188;8.524;2022-07-22T00:58:00;8.32;;;5.40;;
46006;SDS011;31738;50.188;8.524;2022-07-22T01:00:27;9.05;;;5.35;;
46006;SDS011;31738;50.188;8.524;2022-07-22T01:02:52;7.10;;;5.05;;
46006;SDS011;31738;50.188;8.524;2022-07-22T01:05:18;7.05;;;4.95;;
46006;SDS011;31738;50.188;8.524;2022-07-22T01:07:44;7.43;;;5.45;;
46006;SDS011;31738;50.188;8.524;2022-07-22T01:10:10;7.40;;;5.50;;
46006;SDS011;31738;50.188;8.524;2022-07-22T01:12:36;7.70;;;4.70;;
46006;SDS011;31738;50.188;8.524;2022-07-22T01:15:02;6.47;;;5.28;;
46006;SDS011;31738;50.188;8.524;2022-07-22T01:17:28;11.60;;;5.47;;
46006;SDS011;31738;50.188;8.524;2022-07-22T01:19:58;6.97;;;5.40;;
46006;SDS011;31738;50.188;8.524;2022-07-22T01:22:26;6.95;;;5.30;;
46006;SDS011;31738;50.188;8.524;2022-07-22T01:24:52;6.80;;;5.07;;
46006;SDS011;31738;50.188;8.524;2022-07-22T01:27:17;9.98;;;5.50;;
46006;SDS011;31738;50.188;8.524;2022-07-22T01:29:43;7.28;;;5.30;;
46006;SDS011;31738;50.188;8.524;2022-07-22T01:32:09;10.48;;;5.85;;
46006;SDS011;31738;50.188;8.524;2022-07-22T01:34:34;6.80;;;5.18;;
46006;SDS011;31738;50.188;8.524;2022-07-22T01:37:00;7.65;;;5.72;;
46006;SDS011;31738;50.188;8.524;2022-07-22T01:39:26;7.78;;;5.07;;
46006;SDS011;31738;50.188;8.524;2022-07-22T01:41:51;7.05;;;5.20;;
46006;SDS011;31738;50.188;8.524;2022-07-22T01:44:17;11.05;;;5.63;;
46006;SDS011;31738;50.188;8.524;2022-07-22T01:46:42;7.43;;;5.38;;
46006;SDS011;31738;50.188;8.524;2022-07-22T01:49:08;9.23;;;5.55;;
46006;SDS011;31738;50.188;8.524;2022-07-22T01:51:37;9.13;;;5.35;;
46006;SDS011;31738;50.188;8.524;2022-07-22T01:54:02;8.73;;;5.28;;
46006;SDS011;31738;50.188;8.524;2022-07-22T01:56:29;9.10;;;5.60;;
46006;SDS011;31738;50.188;8.524;2022-07-22T01:58:55;8.57;;;6.18;;
46006;SDS011;31738;50.188;8.524;2022-07-22T02:01:23;7.03;;;5.60;;
46006;SDS011;31738;50.188;8.524;2022-07-22T02:03:49;8.90;;;5.70;;
46006;SDS011;31738;50.188;8.524;2022-07-22T02:06:15;10.35;;;6.00;;
46006;SDS011;31738;50.188;8.524;2022-07-22T02:08:41;6.95;;;5.28;;
46006;SDS011;31738;50.188;8.524;2022-07-22T02:11:14;7.82;;;5.10;;
46006;SDS011;31738;50.188;8.524;2022-07-22T02:13:58;8.90;;;5.70;;
46006;SDS011;31738;50.188;8.524;2022-07-22T02:16:27;10.02;;;5.85;;
46006;SDS011;31738;50.188;8.524;2022-07-22T02:18:53;8.63;;;5.68;;
46006;SDS011;31738;50.188;8.524;2022-07-22T02:21:19;8.25;;;5.43;;
46006;SDS011;31738;50.188;8.524;2022-07-22T02:23:44;7.25;;;5.40;;
46006;SDS011;31738;50.188;8.524;2022-07-22T02:26:10;6.53;;;5.07;;
46006;SDS011;31738;50.188;8.524;2022-07-22T02:28:36;7.07;;;5.47;;
46006;SDS011;31738;50.188;8.524;2022-07-22T02:31:02;7.88;;;5.40;;
46006;SDS011;31738;50.188;8.524;2022-07-22T02:33:28;9.13;;;4.97;;
46006;SDS011;31738;50.188;8.524;2022-07-22T02:35:56;8.20;;;5.97;;
46006;SDS011;31738;50.188;8.524;2022-07-22T02:38:21;8.02;;;5.90;;
46006;SDS011;31738;50.188;8.524;2022-07-22T02:40:47;7.80;;;5.35;;
46006;SDS011;31738;50.188;8.524;2022-07-22T02:43:13;8.23;;;5.68;;
46006;SDS011;31738;50.188;8.524;2022-07-22T02:45:39;9.45;;;6.25;;
46006;SDS011;31738;50.188;8.524;2022-07-22T02:48:05;8.13;;;6.32;;
46006;SDS011;31738;50.188;8.524;2022-07-22T02:50:32;11.82;;;7.18;;
46006;SDS011;31738;50.188;8.524;2022-07-22T02:52:58;9.55;;;6.22;;
46006;SDS011;31738;50.188;8.524;2022-07-22T02:55:27;9.10;;;6.70;;
46006;SDS011;31738;50.188;8.524;2022-07-22T02:57:54;9.23;;;6.47;;
46006;SDS011;31738;50.188;8.524;2022-07-22T03:00:20;10.40;;;6.22;;
46006;SDS011;31738;50.188;8.524;2022-07-22T03:02:46;8.88;;;6.03;;
46006;SDS011;31738;50.188;8.524;2022-07-22T03:05:13;12.60;;;6.45;;
46006;SDS011;31738;50.188;8.524;2022-07-22T03:07:46;9.63;;;6.28;;
46006;SDS011;31738;50.188;8.524;2022-07-22T03:10:13;10.30;;;6.32;;
46006;SDS011;31738;50.188;8.524;2022-07-22T03:12:39;9.60;;;6.35;;
46006;SDS011;31738;50.188;8.524;2022-07-22T03:15:05;9.68;;;6.10;;
46006;SDS011;31738;50.188;8.524;2022-07-22T03:17:34;8.98;;;5.90;;
46006;SDS011;31738;50.188;8.524;2022-07-22T03:20:04;8.15;;;6.00;;
46006;SDS011;31738;50.188;8.524;2022-07-22T03:22:33;8.85;;;6.68;;
46006;SDS011;31738;50.188;8.524;2022-07-22T03:24:59;8.30;;;5.95;;
46006;SDS011;31738;50.188;8.524;2022-07-22T03:27:25;8.73;;;6.25;;
46006;SDS011;31738;50.188;8.524;2022-07-22T03:29:51;8.38;;;6.40;;
46006;SDS011;31738;50.188;8.524;2022-07-22T03:32:17;10.40;;;6.28;;
46006;SDS011;31738;50.188;8.524;2022-07-22T03:34:46;7.82;;;6.07;;
46006;SDS011;31738;50.188;8.524;2022-07-22T03:37:11;9.73;;;5.97;;
46006;SDS011;31738;50.188;8.524;2022-07-22T03:39:39;9.75;;;6.82;;
46006;SDS011;31738;50.188;8.524;2022-07-22T03:42:05;10.07;;;6.40;;
46006;SDS011;31738;50.188;8.524;2022-07-22T03:44:37;11.63;;;6.10;;
46006;SDS011;31738;50.188;8.524;2022-07-22T03:47:03;7.90;;;6.10;;
46006;SDS011;31738;50.188;8.524;2022-07-22T03:49:29;7.82;;;6.50;;
46006;SDS011;31738;50.188;8.524;2022-07-22T03:51:56;8.82;;;6.57;;
46006;SDS011;31738;50.188;8.524;2022-07-22T03:54:22;8.77;;;6.32;;
46006;SDS011;31738;50.188;8.524;2022-07-22T03:56:49;9.48;;;6.43;;
46006;SDS011;31738;50.188;8.524;2022-07-22T03:59:14;10.85;;;6.68;;
46006;SDS011;31738;50.188;8.524;2022-07-22T04:01:41;8.80;;;6.10;;
46006;SDS011;31738;50.188;8.524;2022-07-22T04:04:09;8.38;;;6.45;;
46006;SDS011;31738;50.188;8.524;2022-07-22T04:06:38;7.78;;;6.32;;
46006;SDS011;31738;50.188;8.524;2022-07-22T04:09:11;9.38;;;6.75;;
46006;SDS011;31738;50.188;8.524;2022-07-22T04:11:36;9.88;;;6.40;;
46006;SDS011;31738;50.188;8.524;2022-07-22T04:14:02;8.18;;;6.60;;
46006;SDS011;31738;50.188;8.524;2022-07-22T04:16:28;8.90;;;6.20;;
46006;SDS011;31738;50.188;8.524;2022-07-22T04:19:01;15.20;;;6.88;;
46006;SDS011;31738;50.188;8.524;2022-07-22T04:21:40;9.57;;;6.60;;
46006;SDS011;31738;50.188;8.524;2022-07-22T04:24:08;9.23;;;7.10;;
46006;SDS011;31738;50.188;8.524;2022-07-22T04:26:35;9.82;;;7.05;;
46006;SDS011;31738;50.188;8.524;2022-07-22T04:29:03;10.52;;;6.95;;
46006;SDS011;31738;50.188;8.524;2022-07-22T04:31:30;11.73;;;9.07;;
46006;SDS011;31738;50.188;8.524;2022-07-22T04:34:02;14.73;;;8.35;;
46006;SDS011;31738;50.188;8.524;2022-07-22T04:36:28;12.55;;;8.23;;
46006;SDS011;31738;50.188;8.524;2022-07-22T04:38:53;10.32;;;8.07;;
46006;SDS011;31738;50.188;8.524;2022-07-22T04:41:19;14.00;;;8.43;;
46006;SDS011;31738;50.188;8.524;2022-07-22T04:43:45;13.57;;;8.65;;
46006;SDS011;31738;50.188;8.524;2022-07-22T04:46:10;11.30;;;8.25;;
46006;SDS011;31738;50.188;8.524;2022-07-22T04:48:40;11.63;;;8.32;;
46006;SDS011;31738;50.188;8.524;2022-07-22T04:51:05;15.07;;;8.63;;
46006;SDS011;31738;50.188;8.524;2022-07-22T04:53:32;13.73;;;9.15;;
46006;SDS011;31738;50.188;8.524;2022-07-22T04:55:58;12.65;;;8.32;;
46006;SDS011;31738;50.188;8.524;2022-07-22T04:58:24;14.23;;;8.32;;
46006;SDS011;31738;50.188;8.524;2022-07-22T05:00:50;13.43;;;8.88;;
46006;SDS011;31738;50.188;8.524;2022-07-22T05:03:15;14.82;;;8.80;;
46006;SDS011;31738;50.188;8.524;2022-07-22T05:05:42;12.48;;;9.02;;
46006;SDS011;31738;50.188;8.524;2022-07-22T05:08:07;12.13;;;8.85;;
46006;SDS011;31738;50.188;8.524;2022-07-22T05:10:34;15.90;;;9.40;;
46006;SDS011;31738;50.188;8.524;2022-07-22T05:12:59;14.10;;;9.73;;
46006;SDS011;31738;50.188;8.524;2022-07-22T05:15:25;13.27;;;8.95;;
46006;SDS011;31738;50.188;8.524;2022-07-22T05:17:51;11.45;;;8.52;;
46006;SDS011;31738;50.188;8.524;2022-07-22T05:20:24;14.30;;;8.52;;
46006;SDS011;31738;50.188;8.524;2022-07-22T05:22:49;13.23;;;8.07;;
46006;SDS011;31738;50.188;8.524;2022-07-22T05:25:20;13.10;;;8.30;;
46006;SDS011;31738;50.188;8.524;2022-07-22T05:27:49;13.02;;;8.10;;
46006;SDS011;31738;50.188;8.524;2022-07-22T05:30:18;11.73;;;8.50;;
46006;SDS011;31738;50.188;8.524;2022-07-22T05:32:44;13.85;;;9.18;;
46006;SDS011;31738;50.188;8.524;2022-07-22T05:35:11;11.25;;;7.72;;
46006;SDS011;31738;50.188;8.524;2022-07-22T05:37:37;10.00;;;7.55;;
46006;SDS011;31738;50.188;8.524;2022-07-22T05:40:03;10.57;;;7.20;;
46006;SDS011;31738;50.188;8.524;2022-07-22T05:42:29;12.73;;;7.00;;
46006;SDS011;31738;50.188;8.524;2022-07-22T05:44:54;12.38;;;6.85;;
46006;SDS011;31738;50.188;8.524;2022-07-22T05:47:20;10.25;;;6.45;;
46006;SDS011;31738;50.188;8.524;2022-07-22T05:49:45;11.57;;;6.65;;
46006;SDS011;31738;50.188;8.524;2022-07-22T05:52:12;11.27;;;7.20;;
46006;SDS011;31738;50.188;8.524;2022-07-22T05:54:37;11.60;;;7.80;;
46006;SDS011;31738;50.188;8.524;2022-07-22T05:57:05;10.35;;;7.43;;
46006;SDS011;31738;50.188;8.524;2022-07-22T05:59:34;12.80;;;8.27;;
46006;SDS011;31738;50.188;8.524;2022-07-22T06:02:00;13.02;;;8.32;;
46006;SDS011;31738;50.188;8.524;2022-07-22T06:04:52;11.63;;;8.30;;
46006;SDS011;31738;50.188;8.524;2022-07-22T06:07:20;11.23;;;8.07;;
46006;SDS011;31738;50.188;8.524;2022-07-22T06:09:51;10.00;;;7.78;;
46006;SDS011;31738;50.188;8.524;2022-07-22T06:12:17;13.25;;;8.32;;
46006;SDS011;31738;50.188;8.524;2022-07-22T06:14:42;11.40;;;8.77;;
46006;SDS011;31738;50.188;8.524;2022-07-22T06:17:08;12.20;;;7.90;;
46006;SDS011;31738;50.188;8.524;2022-07-22T06:19:33;12.75;;;8.00;;
46006;SDS011;31738;50.188;8.524;2022-07-22T06:21:59;12.48;;;8.25;;
46006;SDS011;31738;50.188;8.524;2022-07-22T06:24:26;14.88;;;8.55;;
46006;SDS011;31738;50.188;8.524;2022-07-22T06:26:52;12.93;;;8.05;;
46006;SDS011;31738;50.188;8.524;2022-07-22T06:29:17;13.25;;;8.88;;
46006;SDS011;31738;50.188;8.524;2022-07-22T06:31:43;8.77;;;6.10;;
46006;SDS011;31738;50.188;8.524;2022-07-22T06:34:08;8.23;;;5.07;;
46006;SDS011;31738;50.188;8.524;2022-07-22T06:36:53;7.53;;;4.70;;
46006;SDS011;31738;50.188;8.524;2022-07-22T06:39:19;5.57;;;3.90;;
46006;SDS011;31738;50.188;8.524;2022-07-22T06:42:05;4.57;;;4.10;;
46006;SDS011;31738;50.188;8.524;2022-07-22T06:45:09;6.22;;;3.97;;
46006;SDS011;31738;50.188;8.524;2022-07-22T06:47:49;8.15;;;4.38;;
46006;SDS011;31738;50.188;8.524;2022-07-22T06:50:16;6.15;;;4.18;;
46006;SDS011;31738;50.188;8.524;2022-07-22T06:52:42;5.68;;;3.28;;
46006;SDS011;31738;50.188;8.524;2022-07-22T06:55:09;6.00;;;4.25;;
46006;SDS011;31738;50.188;8.524;2022-07-22T06:57:40;5.18;;;3.60;;
46006;SDS011;31738;50.188;8.524;2022-07-22T07:00:06;5.72;;;3.83;;
46006;SDS011;31738;50.188;8.524;2022-07-22T07:02:42;5.53;;;3.97;;
46006;SDS011;31738;50.188;8.524;2022-07-22T07:05:07;5.10;;;4.10;;
46006;SDS011;31738;50.188;8.524;2022-07-22T07:07:34;5.68;;;4.28;;
46006;SDS011;31738;50.188;8.524;2022-07-22T07:10:00;6.03;;;4.10;;
46006;SDS011;31738;50.188;8.524;2022-07-22T07:12:39;5.55;;;4.00;;
46006;SDS011;31738;50.188;8.524;2022-07-22T07:15:07;5.15;;;3.50;;
46006;SDS011;31738;50.188;8.524;2022-07-22T07:17:33;5.45;;;3.65;;
46006;SDS011;31738;50.188;8.524;2022-07-22T07:20:01;4.90;;;4.28;;
46006;SDS011;31738;50.188;8.524;2022-07-22T07:22:26;4.82;;;4.00;;
46006;SDS011;31738;50.188;8.524;2022-07-22T07:24:52;5.93;;;4.00;;
46006;SDS011;31738;50.188;8.524;2022-07-22T07:27:18;4.97;;;3.95;;
46006;SDS011;31738;50.188;8.524;2022-07-22T07:29:46;8.02;;;4.03;;
46006;SDS011;31738;50.188;8.524;2022-07-22T07:32:12;5.07;;;4.30;;
46006;SDS011;31738;50.188;8.524;2022-07-22T07:34:38;6.25;;;4.30;;
46006;SDS011;31738;50.188;8.524;2022-07-22T07:37:04;6.93;;;4.35;;
46006;SDS011;31738;50.188;8.524;2022-07-22T07:39:29;6.82;;;4.80;;
46006;SDS011;31738;50.188;8.524;2022-07-22T07:41:56;6.30;;;4.45;;
46006;SDS011;31738;50.188;8.524;2022-07-22T07:44:23;6.97;;;4.30;;
46006;SDS011;31738;50.188;8.524;2022-07-22T07:46:49;5.45;;;4.15;;
46006;SDS011;31738;50.188;8.524;2022-07-22T07:49:14;5.75;;;4.55;;
46006;SDS011;31738;50.188;8.524;2022-07-22T07:51:40;7.18;;;3.97;;
46006;SDS011;31738;50.188;8.524;2022-07-22T07:54:06;4.75;;;3.83;;
46006;SDS011;31738;50.188;8.524;2022-07-22T07:56:31;6.85;;;4.30;;
46006;SDS011;31738;50.188;8.524;2022-07-22T07:58:57;5.00;;;3.97;;
46006;SDS011;31738;50.188;8.524;2022-07-22T08:01:23;4.80;;;4.15;;
46006;SDS011;31738;50.188;8.524;2022-07-22T08:03:48;5.13;;;3.90;;
46006;SDS011;31738;50.188;8.524;2022-07-22T08:06:14;5.20;;;4.05;;
46006;SDS011;31738;50.188;8.524;2022-07-22T08:08:40;4.13;;;3.72;;
46006;SDS011;31738;50.188;8.524;2022-07-22T08:11:13;4.38;;;3.75;;
46006;SDS011;31738;50.188;8.524;2022-07-22T08:13:50;10.65;;;4.80;;
46006;SDS011;31738;50.188;8.524;2022-07-22T08:16:34;7.72;;;4.38;;
46006;SDS011;31738;50.188;8.524;2022-07-22T08:19:00;6.97;;;4.70;;
46006;SDS011;31738;50.188;8.524;2022-07-22T08:21:25;5.80;;;4.43;;
46006;SDS011;31738;50.188;8.524;2022-07-22T08:23:54;6.03;;;4.28;;
46006;SDS011;31738;50.188;8.524;2022-07-22T08:26:21;4.80;;;4.00;;
46006;SDS011;31738;50.188;8.524;2022-07-22T08:28:46;8.77;;;4.68;;
46006;SDS011;31738;50.188;8.524;2022-07-22T08:31:12;5.13;;;4.07;;
46006;SDS011;31738;50.188;8.524;2022-07-22T08:33:38;7.82;;;4.57;;
46006;SDS011;31738;50.188;8.524;2022-07-22T08:36:03;5.07;;;3.95;;
46006;SDS011;31738;50.188;8.524;2022-07-22T08:38:30;7.85;;;4.78;;
46006;SDS011;31738;50.188;8.524;2022-07-22T08:40:57;5.85;;;4.50;;
46006;SDS011;31738;50.188;8.524;2022-07-22T08:43:25;7.45;;;4.50;;
46006;SDS011;31738;50.188;8.524;2022-07-22T08:45:51;5.60;;;4.10;;
46006;SDS011;31738;50.188;8.524;2022-07-22T08:48:17;6.20;;;4.53;;
46006;SDS011;31738;50.188;8.524;2022-07-22T08:51:01;5.13;;;4.50;;
46006;SDS011;31738;50.188;8.524;2022-07-22T08:53:35;8.13;;;5.00;;
46006;SDS011;31738;50.188;8.524;2022-07-22T08:56:06;5.22;;;4.20;;
46006;SDS011;31738;50.188;8.524;2022-07-22T08:58:32;5.43;;;4.18;;
46006;SDS011;31738;50.188;8.524;2022-07-22T09:03:31;8.07;;;5.10;;
46006;SDS011;31738;50.188;8.524;2022-07-22T09:05:59;5.10;;;4.22;;
46006;SDS011;31738;50.188;8.524;2022-07-22T09:08:25;7.35;;;4.57;;
46006;SDS011;31738;50.188;8.524;2022-07-22T09:11:19;7.60;;;4.78;;
46006;SDS011;31738;50.188;8.524;2022-07-22T09:14:18;9.18;;;4.68;;
46006;SDS011;31738;50.188;8.524;2022-07-22T09:17:24;7.05;;;5.18;;
46006;SDS011;31738;50.188;8.524;2022-07-22T09:20:15;7.00;;;5.60;;
46006;SDS011;31738;50.188;8.524;2022-07-22T09:23:03;6.45;;;4.82;;
46006;SDS011;31738;50.188;8.524;2022-07-22T09:25:36;6.07;;;4.70;;
46006;SDS011;31738;50.188;8.524;2022-07-22T09:28:22;5.53;;;4.57;;
46006;SDS011;31738;50.188;8.524;2022-07-22T09:31:25;7.57;;;4.82;;
46006;SDS011;31738;50.188;8.524;2022-07-22T09:33:55;8.20;;;5.22;;
46006;SDS011;31738;50.188;8.524;2022-07-22T09:36:26;6.13;;;4.70;;
46006;SDS011;31738;50.188;8.524;2022-07-22T09:38:54;5.68;;;4.55;;
46006;SDS011;31738;50.188;8.524;2022-07-22T09:41:20;7.18;;;4.70;;
46006;SDS011;31738;50.188;8.524;2022-07-22T09:43:47;5.25;;;4.30;;
46006;SDS011;31738;50.188;8.524;2022-07-22T09:46:13;8.52;;;5.40;;
46006;SDS011;31738;50.188;8.524;2022-07-22T09:48:57;6.95;;;5.10;;
46006;SDS011;31738;50.188;8.524;2022-07-22T09:51:55;7.32;;;4.70;;
46006;SDS011;31738;50.188;8.524;2022-07-22T09:54:41;5.85;;;5.05;;
46006;SDS011;31738;50.188;8.524;2022-07-22T09:57:08;5.38;;;4.30;;
46006;SDS011;31738;50.188;8.524;2022-07-22T09:59:34;6.45;;;5.20;;
46006;SDS011;31738;50.188;8.524;2022-07-22T10:02:20;6.78;;;5.03;;
46006;SDS011;31738;50.188;8.524;2022-07-22T10:04:47;6.72;;;5.43;;
46006;SDS011;31738;50.188;8.524;2022-07-22T10:07:15;6.47;;;5.38;;
46006;SDS011;31738;50.188;8.524;2022-07-22T10:09:43;6.32;;;4.70;;
46006;SDS011;31738;50.188;8.524;2022-07-22T10:12:11;6.75;;;5.07;;
46006;SDS011;31738;50.188;8.524;2022-07-22T10:14:38;7.38;;;5.50;;
46006;SDS011;31738;50.188;8.524;2022-07-22T10:17:04;6.80;;;4.95;;
46006;SDS011;31738;50.188;8.524;2022-07-22T10:19:30;5.95;;;5.35;;
46006;SDS011;31738;50.188;8.524;2022-07-22T10:21:55;8.65;;;6.03;;
46006;SDS011;31738;50.188;8.524;2022-07-22T10:24:21;6.85;;;5.53;;
46006;SDS011;31738;50.188;8.524;2022-07-22T10:35:19;9.82;;;5.45;;
46006;SDS011;31738;50.188;8.524;2022-07-22T10:43:11;6.80;;;5.28;;
46006;SDS011;31738;50.188;8.524;2022-07-22T10:45:37;7.00;;;5.70;;
46006;SDS011;31738;50.188;8.524;2022-07-22T10:48:05;7.45;;;5.93;;
46006;SDS011;31738;50.188;8.524;2022-07-22T10:53:03;6.47;;;5.45;;
46006;SDS011;31738;50.188;8.524;2022-07-22T10:55:36;9.18;;;5.57;;
46006;SDS011;31738;50.188;8.524;2022-07-22T11:00:59;5.85;;;5.10;;
46006;SDS011;31738;50.188;8.524;2022-07-22T11:03:29;6.93;;;5.40;;
46006;SDS011;31738;50.188;8.524;2022-07-22T11:05:55;6.40;;;5.22;;
46006;SDS011;31738;50.188;8.524;2022-07-22T11:08:22;5.72;;;4.78;;
46006;SDS011;31738;50.188;8.524;2022-07-22T11:10:48;6.25;;;5.32;;
46006;SDS011;31738;50.188;8.524;2022-07-22T11:13:37;6.13;;;5.00;;
46006;SDS011;31738;50.188;8.524;2022-07-22T11:16:13;8.93;;;5.32;;
46006;SDS011;31738;50.188;8.524;2022-07-22T11:18:50;7.07;;;5.15;;
46006;SDS011;31738;50.188;8.524;2022-07-22T11:21:18;8.98;;;5.22;;
46006;SDS011;31738;50.188;8.524;2022-07-22T11:23:44;6.35;;;5.28;;
46006;SDS011;31738;50.188;8.524;2022-07-22T11:26:14;5.60;;;5.05;;
46006;SDS011;31738;50.188;8.524;2022-07-22T11:28:42;5.03;;;4.53;;
46006;SDS011;31738;50.188;8.524;2022-07-22T11:31:10;9.15;;;5.40;;
46006;SDS011;31738;50.188;8.524;2022-07-22T11:33:39;5.28;;;4.78;;
46006;SDS011;31738;50.188;8.524;2022-07-22T11:36:05;8.20;;;5.10;;
46006;SDS011;31738;50.188;8.524;2022-07-22T11:41:14;6.78;;;5.75;;
46006;SDS011;31738;50.188;8.524;2022-07-22T11:43:45;6.63;;;5.35;;
46006;SDS011;31738;50.188;8.524;2022-07-22T11:46:13;6.55;;;5.43;;
46006;SDS011;31738;50.188;8.524;2022-07-22T11:48:40;6.30;;;5.68;;
46006;SDS011;31738;50.188;8.524;2022-07-22T11:51:08;6.57;;;5.13;;
46006;SDS011;31738;50.188;8.524;2022-07-22T11:53:36;8.27;;;6.07;;
46006;SDS011;31738;50.188;8.524;2022-07-22T11:56:03;7.95;;;5.72;;
46006;SDS011;31738;50.188;8.524;2022-07-22T11:58:37;7.18;;;5.22;;
46006;SDS011;31738;50.188;8.524;2022-07-22T12:01:03;6.88;;;5.13;;
46006;SDS011;31738;50.188;8.524;2022-07-22T12:03:31;6.47;;;5.13;;
46006;SDS011;31738;50.188;8.524;2022-07-22T12:05:58;7.05;;;5.68;;
46006;SDS011;31738;50.188;8.524;2022-07-22T12:08:23;6.38;;;5.72;;
46006;SDS011;31738;50.188;8.524;2022-07-22T12:10:49;7.78;;;5.50;;
46006;SDS011;31738;50.188;8.524;2022-07-22T12:13:15;7.82;;;5.90;;
46006;SDS011;31738;50.188;8.524;2022-07-22T12:15:40;7.20;;;5.68;;
46006;SDS011;31738;50.188;8.524;2022-07-22T12:18:16;7.35;;;5.38;;
46006;SDS011;31738;50.188;8.524;2022-07-22T12:20:46;8.13;;;5.68;;
46006;SDS011;31738;50.188;8.524;2022-07-22T12:23:13;6.32;;;5.70;;
46006;SDS011;31738;50.188;8.524;2022-07-22T12:25:51;8.32;;;5.95;;
46006;SDS011;31738;50.188;8.524;2022-07-22T12:28:24;6.00;;;5.18;;
46006;SDS011;31738;50.188;8.524;2022-07-22T12:30:51;7.30;;;5.63;;
46006;SDS011;31738;50.188;8.524;2022-07-22T12:33:19;8.27;;;5.60;;
46006;SDS011;31738;50.188;8.524;2022-07-22T12:35:59;6.53;;;5.45;;
46006;SDS011;31738;50.188;8.524;2022-07-22T12:38:26;7.15;;;5.53;;
46006;SDS011;31738;50.188;8.524;2022-07-22T12:40:52;6.68;;;5.80;;
46006;SDS011;31738;50.188;8.524;2022-07-22T12:43:22;8.55;;;5.45;;
46006;SDS011;31738;50.188;8.524;2022-07-22T12:45:49;7.88;;;5.32;;
46006;SDS011;31738;50.188;8.524;2022-07-22T12:48:15;6.65;;;5.35;;
46006;SDS011;31738;50.188;8.524;2022-07-22T12:50:51;7.28;;;5.80;;
46006;SDS011;31738;50.188;8.524;2022-07-22T12:53:24;6.13;;;5.20;;
46006;SDS011;31738;50.188;8.524;2022-07-22T12:55:57;8.40;;;5.68;;
46006;SDS011;31738;50.188;8.524;2022-07-22T12:58:29;7.45;;;5.75;;
46006;SDS011;31738;50.188;8.524;2022-07-22T13:00:56;6.43;;;5.68;;
46006;SDS011;31738;50.188;8.524;2022-07-22T13:03:24;7.65;;;5.72;;
46006;SDS011;31738;50.188;8.524;2022-07-22T13:05:54;6.10;;;5.53;;
46006;SDS011;31738;50.188;8.524;2022-07-22T13:08:22;6.93;;;5.32;;
46006;SDS011;31738;50.188;8.524;2022-07-22T13:10:48;7.45;;;5.80;;
46006;SDS011;31738;50.188;8.524;2022-07-22T13:13:15;12.43;;;5.70;;
46006;SDS011;31738;50.188;8.524;2022-07-22T13:15:40;9.10;;;6.43;;
46006;SDS011;31738;50.188;8.524;2022-07-22T13:18:06;7.35;;;5.72;;
46006;SDS011;31738;50.188;8.524;2022-07-22T13:20:31;7.65;;;6.25;;
46006;SDS011;31738;50.188;8.524;2022-07-22T13:22:58;8.35;;;5.90;;
46006;SDS011;31738;50.188;8.524;2022-07-22T13:25:23;9.40;;;6.55;;
46006;SDS011;31738;50.188;8.524;2022-07-22T13:27:52;6.55;;;5.68;;
46006;SDS011;31738;50.188;8.524;2022-07-22T13:30:18;7.32;;;5.40;;
46006;SDS011;31738;50.188;8.524;2022-07-22T13:32:43;8.32;;;6.50;;
46006;SDS011;31738;50.188;8.524;2022-07-22T13:35:09;9.88;;;6.13;;
46006;SDS011;31738;50.188;8.524;2022-07-22T13:37:34;7.53;;;6.20;;
46006;SDS011;31738;50.188;8.524;2022-07-22T13:40:00;8.25;;;5.95;;
46006;SDS011;31738;50.188;8.524;2022-07-22T13:42:26;7.82;;;6.10;;
46006;SDS011;31738;50.188;8.524;2022-07-22T13:44:51;6.22;;;5.60;;
46006;SDS011;31738;50.188;8.524;2022-07-22T13:47:17;7.35;;;6.10;;
46006;SDS011;31738;50.188;8.524;2022-07-22T13:49:43;6.63;;;5.90;;
46006;SDS011;31738;50.188;8.524;2022-07-22T13:52:09;6.32;;;5.72;;
46006;SDS011;31738;50.188;8.524;2022-07-22T13:54:35;7.18;;;6.05;;
46006;SDS011;31738;50.188;8.524;2022-07-22T13:57:00;7.75;;;6.18;;
46006;SDS011;31738;50.188;8.524;2022-07-22T13:59:28;7.00;;;5.97;;
46006;SDS011;31738;50.188;8.524;2022-07-22T14:01:54;7.78;;;6.30;;
46006;SDS011;31738;50.188;8.524;2022-07-22T14:04:20;10.20;;;7.13;;
46006;SDS011;31738;50.188;8.524;2022-07-22T14:06:45;9.48;;;6.35;;
46006;SDS011;31738;50.188;8.524;2022-07-22T14:09:11;9.13;;;6.65;;
46006;SDS011;31738;50.188;8.524;2022-07-22T14:11:37;7.15;;;6.07;;
46006;SDS011;31738;50.188;8.524;2022-07-22T14:14:02;8.48;;;6.25;;
46006;SDS011;31738;50.188;8.524;2022-07-22T14:16:27;6.63;;;5.97;;
46006;SDS011;31738;50.188;8.524;2022-07-22T14:19:00;7.20;;;6.03;;
46006;SDS011;31738;50.188;8.524;2022-07-22T14:21:26;7.55;;;6.20;;
46006;SDS011;31738;50.188;8.524;2022-07-22T14:23:52;9.18;;;6.30;;
46006;SDS011;31738;50.188;8.524;2022-07-22T14:26:17;6.93;;;6.22;;
46006;SDS011;31738;50.188;8.524;2022-07-22T14:28:43;6.70;;;5.93;;
46006;SDS011;31738;50.188;8.524;2022-07-22T14:31:08;7.88;;;6.63;;
46006;SDS011;31738;50.188;8.524;2022-07-22T14:33:33;7.22;;;6.45;;
46006;SDS011;31738;50.188;8.524;2022-07-22T14:35:59;8.02;;;6.05;;
46006;SDS011;31738;50.188;8.524;2022-07-22T14:38:24;8.90;;;6.18;;
46006;SDS011;31738;50.188;8.524;2022-07-22T14:40:50;7.53;;;5.80;;
46006;SDS011;31738;50.188;8.524;2022-07-22T14:43:15;8.10;;;5.75;;
46006;SDS011;31738;50.188;8.524;2022-07-22T14:45:41;10.45;;;5.85;;
46006;SDS011;31738;50.188;8.524;2022-07-22T14:48:06;7.07;;;5.93;;
46006;SDS011;31738;50.188;8.524;2022-07-22T14:50:32;6.88;;;6.15;;
46006;SDS011;31738;50.188;8.524;2022-07-22T14:52:57;9.73;;;6.28;;
46006;SDS011;31738;50.188;8.524;2022-07-22T14:55:22;7.63;;;5.65;;
46006;SDS011;31738;50.188;8.524;2022-07-22T14:57:48;7.93;;;6.00;;
46006;SDS011;31738;50.188;8.524;2022-07-22T15:00:13;7.70;;;6.07;;
46006;SDS011;31738;50.188;8.524;2022-07-22T15:02:40;8.23;;;5.85;;
46006;SDS011;31738;50.188;8.524;2022-07-22T15:05:05;5.90;;;5.32;;
46006;SDS011;31738;50.188;8.524;2022-07-22T15:07:31;9.15;;;6.45;;
46006;SDS011;31738;50.188;8.524;2022-07-22T15:09:56;6.75;;;6.05;;
46006;SDS011;31738;50.188;8.524;2022-07-22T15:12:22;8.38;;;6.07;;
46006;SDS011;31738;50.188;8.524;2022-07-22T15:14:47;8.40;;;5.60;;
46006;SDS011;31738;50.188;8.524;2022-07-22T15:17:13;6.55;;;5.85;;